createdAt,value
2022-12-19T00:02:19.742Z,0.34
2022-12-19T00:04:51.908Z,0.45
2022-12-19T00:07:23.855Z,0.50
2022-12-19T00:09:55.769Z,0.55
2022-12-19T00:12:27.802Z,0.57
2022-12-19T00:14:59.734Z,0.54
2022-12-19T00:17:33.878Z,0.54
2022-12-19T00:20:09.712Z,0.55
2022-12-19T00:22:43.207Z,0.56
2022-12-19T00:25:15.345Z,0.59
2022-12-19T00:27:47.975Z,0.61
2022-12-19T00:30:19.947Z,0.65
2022-12-19T00:32:52.394Z,0.71
2022-12-19T00:35:25.001Z,0.69
2022-12-19T00:37:57.060Z,0.81
2022-12-19T00:40:29.120Z,0.78
2022-12-19T00:43:01.211Z,0.83
2022-12-19T00:45:33.285Z,0.83
2022-12-19T00:48:05.895Z,0.76
2022-12-19T00:50:38.492Z,0.78
2022-12-19T00:53:10.542Z,0.67
2022-12-19T00:55:42.576Z,0.75
2022-12-19T00:58:14.528Z,0.74
2022-12-19T01:00:46.529Z,0.69
2022-12-19T01:03:18.538Z,0.59
2022-12-19T01:05:52.500Z,0.61
2022-12-19T01:08:24.654Z,0.62
2022-12-19T01:10:58.221Z,0.59
2022-12-19T01:13:34.205Z,0.47
2022-12-19T01:16:11.164Z,0.48
2022-12-19T01:18:43.621Z,0.51
2022-12-19T01:21:15.617Z,0.41
2022-12-19T01:23:47.552Z,0.36
2022-12-19T01:26:19.562Z,0.44
2022-12-19T01:28:51.483Z,0.44
2022-12-19T01:31:23.817Z,0.40
2022-12-19T01:33:55.885Z,0.46
2022-12-19T01:36:28.240Z,0.41
2022-12-19T01:39:00.210Z,0.41
2022-12-19T01:41:32.162Z,0.38
2022-12-19T01:44:09.054Z,0.48
2022-12-19T01:46:46.641Z,0.53
2022-12-19T01:49:35.105Z,0.60
2022-12-19T01:52:09.097Z,0.60
2022-12-19T01:54:44.456Z,0.61
2022-12-19T01:57:19.843Z,0.54
2022-12-19T01:59:57.192Z,0.57
2022-12-19T02:02:38.856Z,0.56
2022-12-19T02:05:11.183Z,0.55
2022-12-19T02:07:44.426Z,0.56
2022-12-19T02:10:16.546Z,0.63
2022-12-19T02:12:48.543Z,0.65
2022-12-19T02:15:21.286Z,0.68
2022-12-19T02:18:02.163Z,0.71
2022-12-19T02:21:18.953Z,0.69
2022-12-19T02:24:41.582Z,0.80
2022-12-19T02:27:56.765Z,0.74
2022-12-19T02:30:50.605Z,0.74
2022-12-19T02:33:39.628Z,0.84
2022-12-19T02:36:48.910Z,0.80
2022-12-19T02:39:46.756Z,0.87
2022-12-19T02:42:29.189Z,0.83
2022-12-19T02:45:07.451Z,0.88
2022-12-19T02:47:40.541Z,0.86
2022-12-19T02:50:13.407Z,0.80
2022-12-19T02:52:47.803Z,0.77
2022-12-19T02:55:24.632Z,0.84
2022-12-19T02:58:51.484Z,0.89
2022-12-19T03:01:50.354Z,0.99
2022-12-19T03:05:14.166Z,1.02
2022-12-19T03:08:08.534Z,0.97
2022-12-19T03:10:48.686Z,1.08
2022-12-19T03:13:30.546Z,1.15
2022-12-19T03:16:04.627Z,1.16
2022-12-19T03:18:36.797Z,1.17
2022-12-19T03:21:16.153Z,1.26
2022-12-19T03:23:50.689Z,1.28
2022-12-19T03:26:27.173Z,1.26
2022-12-19T03:29:13.233Z,1.14
2022-12-19T03:31:46.352Z,1.21
2022-12-19T03:34:30.332Z,1.32
2022-12-19T03:37:05.772Z,1.31
2022-12-19T03:39:42.203Z,1.42
2022-12-19T03:42:35.150Z,1.48
2022-12-19T03:45:08.121Z,1.49
2022-12-19T03:47:57.318Z,1.49
2022-12-19T03:50:42.983Z,1.54
2022-12-19T03:53:48.616Z,1.54
2022-12-19T03:56:33.959Z,1.61
2022-12-19T03:59:22.687Z,1.55
2022-12-19T04:01:55.348Z,1.58
2022-12-19T04:04:28.971Z,1.66
2022-12-19T04:07:03.628Z,1.64
2022-12-19T04:09:37.232Z,1.62
2022-12-19T04:12:20.346Z,1.70
2022-12-19T04:14:52.691Z,1.63
2022-12-19T04:17:41.568Z,1.63
2022-12-19T04:20:18.409Z,1.70
2022-12-19T04:22:59.101Z,1.69
2022-12-19T04:25:36.132Z,1.70
2022-12-19T04:28:36.761Z,1.64
2022-12-19T04:31:15.678Z,1.67
2022-12-19T04:33:47.701Z,1.74
2022-12-19T04:36:19.715Z,1.69
2022-12-19T04:38:52.775Z,1.80
2022-12-19T04:41:24.829Z,1.85
2022-12-19T04:43:56.833Z,1.87
2022-12-19T04:46:28.825Z,1.95
2022-12-19T04:49:00.803Z,1.97
2022-12-19T04:51:32.767Z,1.99
2022-12-19T04:54:04.849Z,1.91
2022-12-19T04:56:36.806Z,2.01
2022-12-19T04:59:08.985Z,1.97
2022-12-19T05:01:41.040Z,1.95
2022-12-19T05:04:13.174Z,2.04
2022-12-19T05:06:45.148Z,2.08
2022-12-19T05:09:17.578Z,2.08
2022-12-19T05:11:49.606Z,2.13
2022-12-19T05:14:21.589Z,2.20
2022-12-19T05:16:58.898Z,2.22
2022-12-19T05:19:33.310Z,2.21
2022-12-19T05:22:05.435Z,2.27
2022-12-19T05:24:37.343Z,2.26
2022-12-19T05:27:09.357Z,2.22
2022-12-19T05:29:41.347Z,2.17
2022-12-19T05:32:13.350Z,2.18
2022-12-19T05:34:45.280Z,2.25
2022-12-19T05:37:17.230Z,2.30
2022-12-19T05:39:49.290Z,2.31
2022-12-19T05:42:21.301Z,2.15
2022-12-19T05:44:53.241Z,2.22
2022-12-19T05:47:25.298Z,2.19
2022-12-19T05:49:57.280Z,2.15
2022-12-19T05:52:29.265Z,2.22
2022-12-19T05:55:01.236Z,2.23
2022-12-19T05:57:33.347Z,2.29
2022-12-19T06:00:09.823Z,2.29
2022-12-19T06:02:42.163Z,2.32
2022-12-19T06:05:14.646Z,2.34
2022-12-19T06:07:46.688Z,2.41
2022-12-19T06:10:18.661Z,2.46
2022-12-19T06:12:50.658Z,2.50
2022-12-19T06:15:22.692Z,2.46
2022-12-19T06:17:55.231Z,2.52
2022-12-19T06:20:27.254Z,2.55
2022-12-19T06:23:00.161Z,2.50
2022-12-19T06:25:32.273Z,2.54
2022-12-19T06:28:04.512Z,2.50
2022-12-19T06:30:36.562Z,2.47
2022-12-19T06:33:08.559Z,2.47
2022-12-19T06:35:40.553Z,2.52
2022-12-19T06:38:12.557Z,2.60
2022-12-19T06:41:03.416Z,2.60
2022-12-19T06:43:35.409Z,2.54
2022-12-19T06:46:08.154Z,2.60
2022-12-19T06:48:40.267Z,2.54
2022-12-19T06:51:12.211Z,2.45
2022-12-19T06:53:44.306Z,2.52
2022-12-19T06:56:18.013Z,2.55
2022-12-19T06:58:50.717Z,2.62
2022-12-19T07:01:36.775Z,2.62
2022-12-19T07:04:12.087Z,2.59
2022-12-19T07:06:48.906Z,2.66
2022-12-19T07:09:22.283Z,2.60
2022-12-19T07:11:54.226Z,2.63
2022-12-19T07:14:26.229Z,2.65
2022-12-19T07:17:01.160Z,2.60
2022-12-19T07:19:34.305Z,2.64
2022-12-19T07:22:06.884Z,2.63
2022-12-19T07:24:38.997Z,2.48
2022-12-19T07:27:11.029Z,2.59
2022-12-19T07:29:43.031Z,2.69
2022-12-19T07:32:15.070Z,2.69
2022-12-19T07:34:47.104Z,2.77
2022-12-19T07:37:19.039Z,2.74
2022-12-19T07:39:52.949Z,2.73
2022-12-19T07:42:28.162Z,2.82
2022-12-19T07:45:05.011Z,2.90
2022-12-19T07:47:36.960Z,2.90
2022-12-19T07:50:09.338Z,2.86
2022-12-19T07:52:41.251Z,2.77
2022-12-19T07:55:13.697Z,2.74
2022-12-19T07:57:45.616Z,2.68
2022-12-19T08:00:18.489Z,2.67
2022-12-19T08:02:50.572Z,2.66
2022-12-19T08:05:25.639Z,2.79
2022-12-19T08:07:58.229Z,2.84
2022-12-19T08:10:31.135Z,2.82
2022-12-19T08:13:03.139Z,2.72
2022-12-19T08:15:35.601Z,2.79
2022-12-19T08:18:07.617Z,2.88
2022-12-19T08:20:39.727Z,2.88
2022-12-19T08:23:11.697Z,2.82
2022-12-19T08:25:43.665Z,2.80
2022-12-19T08:28:15.881Z,2.88
2022-12-19T08:30:48.037Z,2.88
2022-12-19T08:33:20.062Z,2.91
2022-12-19T08:35:52.097Z,2.98
2022-12-19T08:38:24.064Z,2.98
2022-12-19T08:40:56.095Z,2.91
2022-12-19T08:43:28.889Z,2.98
2022-12-19T08:46:01.053Z,3.00
2022-12-19T08:48:34.680Z,3.03
2022-12-19T08:51:08.410Z,3.13
2022-12-19T08:53:42.839Z,3.08
2022-12-19T08:56:20.690Z,3.08
2022-12-19T08:58:52.844Z,3.19
2022-12-19T09:01:26.059Z,3.18
2022-12-19T09:04:25.204Z,3.25
2022-12-19T09:06:53.283Z,3.15
2022-12-19T09:09:25.344Z,3.17
2022-12-19T09:11:57.357Z,3.18
2022-12-19T09:14:34.703Z,3.24
2022-12-19T09:17:07.212Z,3.19
2022-12-19T09:19:39.963Z,3.23
2022-12-19T09:22:15.525Z,3.31
2022-12-19T09:24:47.603Z,3.21
2022-12-19T09:27:19.685Z,3.19
2022-12-19T09:29:51.877Z,3.24
2022-12-19T09:32:23.841Z,3.34
2022-12-19T09:34:55.942Z,3.43
2022-12-19T09:37:28.002Z,3.46
2022-12-19T09:40:00.023Z,3.49
2022-12-19T09:42:57.291Z,3.52
2022-12-19T09:46:08.224Z,3.56
2022-12-19T09:48:40.476Z,3.60
2022-12-19T09:51:35.960Z,3.57
2022-12-19T09:54:20.515Z,3.65
2022-12-19T09:56:59.358Z,3.65
2022-12-19T09:59:41.477Z,3.65
2022-12-19T10:02:57.532Z,3.77
2022-12-19T10:07:09.381Z,3.79
2022-12-19T10:09:49.986Z,3.88
2022-12-19T10:12:39.119Z,3.96
2022-12-19T10:15:10.867Z,4.07
2022-12-19T10:18:02.894Z,4.06
2022-12-19T10:20:38.869Z,4.13
2022-12-19T10:23:42.747Z,4.21
2022-12-19T10:26:21.181Z,4.20
2022-12-19T10:28:56.829Z,4.31
2022-12-19T10:32:13.298Z,4.28
2022-12-19T10:34:47.926Z,4.33
2022-12-19T10:37:49.571Z,4.33
2022-12-19T10:40:30.640Z,4.41
2022-12-19T10:43:44.765Z,4.52
2022-12-19T10:46:38.223Z,4.55
2022-12-19T10:49:17.331Z,4.62
2022-12-19T10:52:08.006Z,4.60
2022-12-19T10:54:43.876Z,4.70
2022-12-19T10:57:21.936Z,4.83
2022-12-19T11:00:06.856Z,4.92
2022-12-19T11:02:38.975Z,4.94
2022-12-19T11:05:28.411Z,5.01
2022-12-19T11:08:07.730Z,4.99
2022-12-19T11:12:16.033Z,5.05
2022-12-19T11:19:13.300Z,5.12
2022-12-19T11:21:38.732Z,5.20
2022-12-19T11:29:19.337Z,5.24
2022-12-19T11:30:05.170Z,5.35
2022-12-19T11:30:43.752Z,5.33
2022-12-19T11:30:46.079Z,5.33
2022-12-19T11:34:24.876Z,5.48
2022-12-19T11:37:21.507Z,5.49
2022-12-19T11:40:40.422Z,5.54
2022-12-19T11:43:53.440Z,5.63
2022-12-19T11:46:49.995Z,5.71
2022-12-19T11:49:39.516Z,5.74
2022-12-19T11:53:03.607Z,5.81
2022-12-19T11:55:55.646Z,5.79
2022-12-19T11:58:31.512Z,5.82
2022-12-19T12:01:35.888Z,5.88
2022-12-19T12:04:46.654Z,5.99
2022-12-19T12:07:41.827Z,5.96
2022-12-19T12:15:00.043Z,5.94
2022-12-19T12:22:17.625Z,6.10
2022-12-19T12:29:39.809Z,6.17
2022-12-19T12:31:22.735Z,6.20
2022-12-19T12:31:23.268Z,6.17
2022-12-19T12:31:45.832Z,6.27
2022-12-19T12:31:55.329Z,6.28
2022-12-19T12:35:16.267Z,6.34
2022-12-19T12:39:24.328Z,6.38
2022-12-19T12:42:37.009Z,6.35
2022-12-19T12:45:35.699Z,6.43
2022-12-19T12:48:31.713Z,6.54
2022-12-19T12:51:04.550Z,6.54
2022-12-19T12:53:42.230Z,6.58
2022-12-19T12:56:17.598Z,6.60
2022-12-19T12:58:51.737Z,6.56
2022-12-19T13:01:29.534Z,6.63
2022-12-19T13:04:31.986Z,6.63
2022-12-19T13:07:39.062Z,6.75
2022-12-19T13:10:13.803Z,6.74
2022-12-19T13:13:22.529Z,6.81
2022-12-19T13:15:57.737Z,6.82
2022-12-19T13:18:40.087Z,6.88
2022-12-19T13:21:12.097Z,6.82
2022-12-19T13:23:48.145Z,6.87
2022-12-19T13:26:47.531Z,6.91
2022-12-19T13:29:33.778Z,7.00
2022-12-19T13:32:15.781Z,6.98
2022-12-19T13:36:53.375Z,6.93
2022-12-19T13:39:56.640Z,7.07
2022-12-19T13:41:58.937Z,7.12
2022-12-19T13:44:39.168Z,7.17
2022-12-19T13:47:18.922Z,7.14
2022-12-19T13:49:54.879Z,7.14
2022-12-19T13:52:26.920Z,7.18
2022-12-19T13:54:59.804Z,7.29
2022-12-19T13:57:32.403Z,7.24
2022-12-19T14:00:17.374Z,7.23
2022-12-19T14:02:54.971Z,7.28
2022-12-19T14:06:17.899Z,7.35
2022-12-19T14:08:30.551Z,7.37
2022-12-19T14:11:56.774Z,7.38
2022-12-19T14:14:25.723Z,7.37
2022-12-19T14:17:33.360Z,7.27
2022-12-19T14:21:10.665Z,7.31
2022-12-19T14:23:15.599Z,7.33
2022-12-19T14:28:20.371Z,7.41
2022-12-19T14:29:00.690Z,7.46
2022-12-19T14:31:35.696Z,7.45
2022-12-19T14:34:46.949Z,7.47
2022-12-19T14:39:03.009Z,7.43
2022-12-19T14:40:33.752Z,7.45
2022-12-19T14:43:57.277Z,7.52
2022-12-19T14:52:51.910Z,7.59
2022-12-19T14:54:10.124Z,7.58
2022-12-19T14:54:29.066Z,7.58
2022-12-19T14:56:16.280Z,7.67
2022-12-19T14:58:54.462Z,7.66
2022-12-19T15:01:34.130Z,7.56
2022-12-19T15:04:48.494Z,7.59
2022-12-19T15:07:29.349Z,7.66
2022-12-19T15:11:06.145Z,7.69
2022-12-19T15:14:55.229Z,7.67
2022-12-19T15:16:44.648Z,7.58
2022-12-19T15:19:16.888Z,7.60
2022-12-19T15:21:49.072Z,7.63
2022-12-19T15:24:21.033Z,7.68
2022-12-19T15:26:53.891Z,7.62
2022-12-19T15:29:26.688Z,7.71
2022-12-19T15:31:58.716Z,7.67
2022-12-19T15:34:38.035Z,7.74
2022-12-19T15:37:15.944Z,7.81
2022-12-19T15:39:48.067Z,7.78
2022-12-19T15:42:25.172Z,7.76
2022-12-19T15:44:59.944Z,7.75
2022-12-19T15:47:37.281Z,7.71
2022-12-19T15:50:17.950Z,7.80
2022-12-19T15:52:53.303Z,7.74
2022-12-19T15:55:29.236Z,7.80
2022-12-19T15:58:05.718Z,7.80
2022-12-19T16:00:37.962Z,7.79
2022-12-19T16:03:23.721Z,7.80
2022-12-19T16:05:57.404Z,7.77
2022-12-19T16:08:29.404Z,7.77
2022-12-19T16:11:02.315Z,7.85
2022-12-19T16:13:35.525Z,7.84
2022-12-19T16:16:15.374Z,7.79
2022-12-19T16:18:47.987Z,7.71
2022-12-19T16:21:33.182Z,7.62
2022-12-19T16:24:06.318Z,7.62
2022-12-19T16:26:40.533Z,7.63
2022-12-19T16:29:21.165Z,7.64
2022-12-19T16:31:54.094Z,7.65
2022-12-19T16:34:26.450Z,7.66
2022-12-19T16:36:58.554Z,7.64
2022-12-19T16:39:30.558Z,7.64
2022-12-19T16:42:05.108Z,7.60
2022-12-19T16:44:37.226Z,7.60
2022-12-19T16:47:17.867Z,7.48
2022-12-19T16:49:49.997Z,7.47
2022-12-19T16:52:22.078Z,7.46
2022-12-19T16:54:54.098Z,7.41
2022-12-19T16:57:26.191Z,7.43
2022-12-19T16:59:58.249Z,7.32
2022-12-19T17:03:01.444Z,7.32
2022-12-19T17:05:33.781Z,7.48
2022-12-19T17:08:12.916Z,7.40
2022-12-19T17:10:46.203Z,7.35
2022-12-19T17:13:18.467Z,7.43
2022-12-19T17:15:56.237Z,7.42
2022-12-19T17:18:36.250Z,7.44
2022-12-19T17:21:16.642Z,7.43
2022-12-19T17:23:52.035Z,7.43
2022-12-19T17:26:23.981Z,7.40
2022-12-19T17:28:55.937Z,7.39
2022-12-19T17:31:30.160Z,7.37
2022-12-19T17:34:02.384Z,7.38
2022-12-19T17:36:37.799Z,7.29
2022-12-19T17:39:25.519Z,7.26
2022-12-19T17:42:21.693Z,7.29
2022-12-19T17:44:55.845Z,7.31
2022-12-19T17:47:30.002Z,7.32
2022-12-19T17:50:02.768Z,7.26
2022-12-19T17:52:36.248Z,7.29
2022-12-19T17:55:26.148Z,7.20
2022-12-19T17:57:59.788Z,7.25
2022-12-19T18:00:33.916Z,7.26
2022-12-19T18:03:17.685Z,7.24
2022-12-19T18:05:52.217Z,7.23
2022-12-19T18:08:30.540Z,7.24
2022-12-19T18:11:05.380Z,7.19
2022-12-19T18:13:37.509Z,7.17
2022-12-19T18:16:14.351Z,7.22
2022-12-19T18:18:47.723Z,7.24
2022-12-19T18:21:24.473Z,7.23
2022-12-19T18:23:56.899Z,7.24
2022-12-19T18:26:29.644Z,7.22
2022-12-19T18:29:01.879Z,7.28
2022-12-19T18:31:36.624Z,7.28
2022-12-19T18:34:19.518Z,7.32
2022-12-19T18:36:54.021Z,7.29
2022-12-19T18:39:29.250Z,7.25
2022-12-19T18:42:01.651Z,7.33
2022-12-19T18:44:34.558Z,7.42
2022-12-19T18:47:21.833Z,7.44
2022-12-19T18:49:53.810Z,7.46
2022-12-19T18:52:25.993Z,7.51
2022-12-19T18:54:57.985Z,7.52
2022-12-19T18:57:30.076Z,7.48
2022-12-19T19:00:02.241Z,7.55
2022-12-19T19:02:34.479Z,7.55
2022-12-19T19:05:17.067Z,7.60
2022-12-19T19:07:49.219Z,7.64
2022-12-19T19:10:25.631Z,7.59
2022-12-19T19:13:01.686Z,7.59
2022-12-19T19:15:41.578Z,7.58
2022-12-19T19:18:13.895Z,7.52
2022-12-19T19:20:46.551Z,7.54
2022-12-19T19:23:18.641Z,7.42
2022-12-19T19:25:50.656Z,7.46
2022-12-19T19:28:22.671Z,7.38
2022-12-19T19:30:55.718Z,7.34
2022-12-19T19:33:34.506Z,7.31
2022-12-19T19:36:13.412Z,7.30
2022-12-19T19:38:50.739Z,7.25
2022-12-19T19:41:29.558Z,7.31
2022-12-19T19:44:02.033Z,7.35
2022-12-19T19:46:33.995Z,7.34
2022-12-19T19:49:05.984Z,7.36
2022-12-19T19:51:38.042Z,7.40
2022-12-19T19:54:16.082Z,7.47
2022-12-19T19:56:48.905Z,7.51
2022-12-19T19:59:21.581Z,7.48
2022-12-19T20:01:54.455Z,7.43
2022-12-19T20:04:26.859Z,7.46
2022-12-19T20:06:58.983Z,7.58
2022-12-19T20:09:31.040Z,7.57
2022-12-19T20:12:04.095Z,7.56
2022-12-19T20:14:36.328Z,7.58
2022-12-19T20:17:08.486Z,7.54
2022-12-19T20:19:40.613Z,7.58
2022-12-19T20:22:12.560Z,7.56
2022-12-19T20:24:44.655Z,7.56
2022-12-19T20:27:16.715Z,7.44
2022-12-19T20:29:48.697Z,7.50
2022-12-19T20:32:20.690Z,7.56
2022-12-19T20:34:52.739Z,7.47
2022-12-19T20:37:25.417Z,7.49
2022-12-19T20:39:57.433Z,7.42
2022-12-19T20:42:29.525Z,7.42
2022-12-19T20:45:01.529Z,7.42
2022-12-19T20:47:33.582Z,7.45
2022-12-19T20:50:07.680Z,7.42
2022-12-19T20:52:39.725Z,7.41
2022-12-19T20:55:11.810Z,7.35
2022-12-19T20:57:43.857Z,7.34
2022-12-19T21:00:18.037Z,7.36
2022-12-19T21:03:26.325Z,7.41
2022-12-19T21:05:42.520Z,7.44
2022-12-19T21:08:14.626Z,7.48
2022-12-19T21:10:46.680Z,7.46
2022-12-19T21:13:19.325Z,7.39
2022-12-19T21:16:03.051Z,7.49
2022-12-19T21:18:37.828Z,7.54
2022-12-19T21:21:16.117Z,7.50
2022-12-19T21:23:48.904Z,7.54
2022-12-19T21:26:23.565Z,7.56
2022-12-19T21:28:58.158Z,7.58
2022-12-19T21:31:31.415Z,7.60
2022-12-19T21:34:03.836Z,7.64
2022-12-19T21:36:37.076Z,7.68
2022-12-19T21:39:09.202Z,7.63
2022-12-19T21:41:41.290Z,7.56
2022-12-19T21:44:13.432Z,7.56
2022-12-19T21:46:47.721Z,7.56
2022-12-19T21:49:20.184Z,7.58
2022-12-19T21:51:52.343Z,7.61
2022-12-19T21:54:24.339Z,7.58
2022-12-19T21:56:56.424Z,7.54
2022-12-19T21:59:28.941Z,7.45
2022-12-19T22:02:01.121Z,7.43
2022-12-19T22:04:33.304Z,7.38
2022-12-19T22:07:07.424Z,7.44
2022-12-19T22:09:39.493Z,7.42
2022-12-19T22:12:13.230Z,7.47
2022-12-19T22:14:45.656Z,7.46
2022-12-19T22:17:17.688Z,7.46
2022-12-19T22:19:49.645Z,7.44
2022-12-19T22:22:21.624Z,7.49
2022-12-19T22:24:53.667Z,7.44
2022-12-19T22:27:25.748Z,7.47
2022-12-19T22:29:58.003Z,7.48
2022-12-19T22:32:30.300Z,7.40
2022-12-19T22:35:02.495Z,7.43
2022-12-19T22:37:34.714Z,7.48
2022-12-19T22:40:08.191Z,7.51
2022-12-19T22:42:40.165Z,7.45
2022-12-19T22:45:12.340Z,7.42
2022-12-19T22:47:44.703Z,7.43
2022-12-19T22:50:16.718Z,7.49
2022-12-19T22:52:48.815Z,7.54
2022-12-19T22:55:20.755Z,7.59
2022-12-19T22:57:52.709Z,7.60
2022-12-19T23:00:24.746Z,7.59
2022-12-19T23:02:56.891Z,7.61
2022-12-19T23:05:29.108Z,7.66
2022-12-19T23:08:01.128Z,7.69
2022-12-19T23:10:33.317Z,7.70
2022-12-19T23:13:05.340Z,7.73
2022-12-19T23:15:37.383Z,7.73
2022-12-19T23:18:09.447Z,7.75
2022-12-19T23:20:41.602Z,7.79
2022-12-19T23:23:13.591Z,7.82
2022-12-19T23:25:45.671Z,7.77
2022-12-19T23:28:17.640Z,7.74
2022-12-19T23:30:49.759Z,7.71
2022-12-19T23:33:21.815Z,7.61
2022-12-19T23:35:53.845Z,7.69
2022-12-19T23:38:26.457Z,7.67
2022-12-19T23:41:02.175Z,7.65
2022-12-19T23:43:36.673Z,7.70
2022-12-19T23:46:22.133Z,7.63
2022-12-19T23:48:55.317Z,7.64
2022-12-19T23:51:28.884Z,7.68
2022-12-19T23:54:00.903Z,7.69
2022-12-19T23:56:33.391Z,7.72
2022-12-19T23:59:05.753Z,7.81
